createdAt,value
2018-11-14T00:01:58.951Z,45.00
2018-11-14T00:04:25.183Z,44.80
2018-11-14T00:06:51.332Z,44.80
2018-11-14T00:09:17.625Z,44.90
2018-11-14T00:11:43.854Z,44.90
2018-11-14T00:14:10.005Z,44.80
2018-11-14T00:16:36.316Z,44.80
2018-11-14T00:19:02.540Z,44.60
2018-11-14T00:21:28.760Z,44.70
2018-11-14T00:23:54.983Z,44.80
2018-11-14T00:26:21.214Z,45.00
2018-11-14T00:28:47.443Z,44.70
2018-11-14T00:31:13.661Z,44.70
2018-11-14T00:33:39.894Z,44.80
2018-11-14T00:36:06.111Z,44.70
2018-11-14T00:38:32.343Z,45.30
2018-11-14T00:40:58.565Z,44.80
2018-11-14T00:43:24.793Z,44.70
2018-11-14T00:45:51.020Z,44.80
2018-11-14T00:48:17.239Z,44.70
2018-11-14T00:50:43.478Z,44.80
2018-11-14T00:53:09.695Z,44.80
2018-11-14T00:55:35.918Z,44.70
2018-11-14T00:58:02.170Z,44.70
2018-11-14T01:00:28.373Z,44.80
2018-11-14T01:02:54.619Z,44.80
2018-11-14T01:05:20.824Z,44.70
2018-11-14T01:07:47.000Z,44.70
2018-11-14T01:10:13.479Z,44.70
2018-11-14T01:12:40.667Z,44.70
2018-11-14T01:15:06.903Z,44.70
2018-11-14T01:17:33.332Z,44.70
2018-11-14T01:19:59.475Z,44.70
2018-11-14T01:22:25.622Z,44.70
2018-11-14T01:24:52.015Z,44.70
2018-11-14T01:27:18.171Z,44.70
2018-11-14T01:29:44.316Z,44.70
2018-11-14T01:32:10.691Z,44.80
2018-11-14T01:34:36.918Z,44.70
2018-11-14T01:37:03.126Z,44.70
2018-11-14T01:39:29.369Z,44.80
2018-11-14T01:41:55.578Z,44.60
2018-11-14T01:44:21.815Z,44.70
2018-11-14T01:46:48.044Z,44.80
2018-11-14T01:49:14.273Z,44.90
2018-11-14T01:51:40.422Z,44.60
2018-11-14T01:54:06.724Z,44.60
2018-11-14T01:56:32.948Z,44.60
2018-11-14T01:58:59.168Z,44.70
2018-11-14T02:01:25.403Z,44.60
2018-11-14T02:03:51.624Z,44.60
2018-11-14T02:06:17.847Z,44.70
2018-11-14T02:08:44.081Z,44.70
2018-11-14T02:11:10.223Z,44.60
2018-11-14T02:13:36.535Z,44.60
2018-11-14T02:16:02.754Z,44.60
2018-11-14T02:18:28.985Z,44.50
2018-11-14T02:20:55.215Z,44.60
2018-11-14T02:23:21.435Z,44.80
2018-11-14T02:25:47.655Z,44.50
2018-11-14T02:28:13.892Z,44.50
2018-11-14T02:30:40.119Z,44.70
2018-11-14T02:33:06.347Z,44.60
2018-11-14T02:35:32.514Z,44.70
2018-11-14T02:37:58.793Z,44.60
2018-11-14T02:40:24.955Z,45.20
2018-11-14T02:42:51.247Z,44.60
2018-11-14T02:45:17.475Z,44.50
2018-11-14T02:47:43.701Z,44.60
2018-11-14T02:50:09.921Z,44.70
2018-11-14T02:52:36.152Z,44.80
2018-11-14T02:55:02.376Z,44.70
2018-11-14T02:57:28.606Z,44.60
2018-11-14T02:59:54.831Z,44.60
2018-11-14T03:02:20.983Z,44.70
2018-11-14T03:04:47.288Z,44.60
2018-11-14T03:07:13.506Z,44.60
2018-11-14T03:09:39.732Z,44.60
2018-11-14T03:12:05.959Z,44.80
2018-11-14T03:14:32.186Z,44.60
2018-11-14T03:16:58.406Z,44.60
2018-11-14T03:19:24.631Z,44.60
2018-11-14T03:21:50.863Z,44.60
2018-11-14T03:24:17.099Z,44.70
2018-11-14T03:26:43.317Z,44.70
2018-11-14T03:29:09.533Z,44.70
2018-11-14T03:31:35.764Z,44.70
2018-11-14T03:34:01.999Z,44.70
2018-11-14T03:36:28.219Z,44.60
2018-11-14T03:38:54.435Z,44.70
2018-11-14T03:41:20.675Z,45.30
2018-11-14T03:43:46.901Z,44.70
2018-11-14T03:46:13.129Z,44.70
2018-11-14T03:48:39.352Z,45.10
2018-11-14T03:51:05.573Z,44.90
2018-11-14T03:53:31.819Z,44.60
2018-11-14T03:55:58.033Z,44.50
2018-11-14T03:58:24.194Z,44.60
2018-11-14T04:00:50.892Z,44.50
2018-11-14T04:03:17.111Z,44.60
2018-11-14T04:05:43.335Z,44.60
2018-11-14T04:08:09.581Z,44.60
2018-11-14T04:10:35.795Z,44.70
2018-11-14T04:13:01.956Z,44.60
2018-11-14T04:15:28.248Z,44.60
2018-11-14T04:17:54.419Z,44.50
2018-11-14T04:20:20.695Z,44.70
2018-11-14T04:22:46.940Z,44.50
2018-11-14T04:25:14.389Z,44.10
2018-11-14T04:27:40.611Z,44.50
2018-11-14T04:30:06.763Z,44.50
2018-11-14T04:32:33.068Z,44.60
2018-11-14T04:34:59.288Z,44.50
2018-11-14T04:37:25.515Z,44.70
2018-11-14T04:39:51.731Z,44.80
2018-11-14T04:42:17.878Z,44.40
2018-11-14T04:44:44.205Z,44.50
2018-11-14T04:47:10.448Z,44.50
2018-11-14T04:49:36.650Z,44.40
2018-11-14T04:52:02.802Z,44.40
2018-11-14T04:54:29.101Z,44.40
2018-11-14T04:56:55.331Z,44.40
2018-11-14T04:59:21.559Z,44.50
2018-11-14T05:01:47.804Z,44.50
2018-11-14T05:04:14.011Z,44.50
2018-11-14T05:06:40.232Z,44.50
2018-11-14T05:09:06.451Z,44.50
2018-11-14T05:11:32.692Z,44.50
2018-11-14T05:13:58.923Z,44.40
2018-11-14T05:16:25.140Z,44.40
2018-11-14T05:18:51.367Z,44.40
2018-11-14T05:21:17.600Z,44.40
2018-11-14T05:23:43.750Z,44.50
2018-11-14T05:26:09.898Z,44.50
2018-11-14T05:28:36.272Z,44.50
2018-11-14T05:31:02.504Z,44.30
2018-11-14T05:33:28.735Z,44.50
2018-11-14T05:35:54.942Z,44.30
2018-11-14T05:38:21.183Z,44.40
2018-11-14T05:40:47.340Z,44.30
2018-11-14T05:43:13.637Z,44.40
2018-11-14T05:45:45.196Z,44.40
2018-11-14T05:48:11.418Z,44.30
2018-11-14T05:50:37.688Z,44.30
2018-11-14T05:53:05.102Z,44.30
2018-11-14T05:55:31.329Z,44.30
2018-11-14T05:57:57.559Z,44.30
2018-11-14T06:00:23.787Z,44.30
2018-11-14T06:02:50.003Z,44.10
2018-11-14T06:05:16.222Z,44.10
2018-11-14T06:07:42.468Z,44.20
2018-11-14T06:10:08.690Z,44.30
2018-11-14T06:12:34.922Z,44.30
2018-11-14T06:15:01.154Z,44.30
2018-11-14T06:17:27.582Z,44.40
2018-11-14T06:19:53.999Z,44.30
2018-11-14T06:22:20.233Z,44.20
2018-11-14T06:24:46.386Z,44.20
2018-11-14T06:27:12.696Z,44.20
2018-11-14T06:29:38.970Z,44.00
2018-11-14T06:32:06.163Z,44.10
2018-11-14T06:34:32.614Z,44.10
2018-11-14T06:36:58.827Z,43.90
2018-11-14T06:39:25.055Z,44.00
2018-11-14T06:41:51.289Z,44.00
2018-11-14T06:44:17.509Z,44.00
2018-11-14T06:46:43.734Z,44.10
2018-11-14T06:49:09.969Z,44.10
2018-11-14T06:51:36.197Z,44.00
2018-11-14T06:54:02.347Z,44.10
2018-11-14T06:56:28.634Z,44.00
2018-11-14T06:58:54.908Z,44.00
2018-11-14T07:01:22.119Z,44.20
2018-11-14T07:03:48.556Z,44.00
2018-11-14T07:06:14.839Z,44.00
2018-11-14T07:08:42.256Z,44.10
2018-11-14T07:11:08.535Z,44.10
2018-11-14T07:13:35.111Z,43.80
2018-11-14T07:16:01.336Z,43.90
2018-11-14T07:18:27.561Z,43.90
2018-11-14T07:20:53.779Z,44.50
2018-11-14T07:23:20.016Z,43.90
2018-11-14T07:25:46.247Z,43.90
2018-11-14T07:28:12.474Z,43.90
2018-11-14T07:30:38.702Z,43.80
2018-11-14T07:33:04.929Z,43.80
2018-11-14T07:35:31.149Z,43.80
2018-11-14T07:37:57.440Z,43.70
2018-11-14T07:40:23.807Z,43.80
2018-11-14T07:42:50.037Z,43.60
2018-11-14T07:45:16.468Z,43.90
2018-11-14T07:47:42.686Z,43.70
2018-11-14T07:50:08.997Z,43.80
2018-11-14T07:52:36.176Z,43.90
2018-11-14T07:55:02.600Z,43.90
2018-11-14T07:57:28.827Z,44.00
2018-11-14T07:59:55.054Z,43.90
2018-11-14T08:02:21.358Z,44.10
2018-11-14T08:04:48.743Z,43.90
2018-11-14T08:07:15.378Z,43.90
2018-11-14T08:09:41.550Z,43.90
2018-11-14T08:12:07.833Z,43.90
2018-11-14T08:14:34.070Z,43.80
2018-11-14T08:17:00.290Z,43.70
2018-11-14T08:19:26.515Z,43.80
2018-11-14T08:21:52.671Z,43.90
2018-11-14T08:24:18.964Z,43.80
2018-11-14T08:26:45.107Z,43.80
2018-11-14T08:29:11.425Z,43.80
2018-11-14T08:31:37.579Z,43.80
2018-11-14T08:34:03.878Z,43.90
2018-11-14T08:36:30.105Z,44.00
2018-11-14T08:38:56.331Z,43.90
2018-11-14T08:41:22.561Z,44.10
2018-11-14T08:43:48.783Z,44.20
2018-11-14T08:46:15.016Z,43.90
2018-11-14T08:48:41.172Z,44.00
2018-11-14T08:51:07.340Z,43.90
2018-11-14T08:53:33.698Z,44.00
2018-11-14T08:55:59.911Z,43.90
2018-11-14T08:58:26.063Z,44.10
2018-11-14T09:00:52.244Z,44.00
2018-11-14T09:03:18.599Z,44.20
2018-11-14T09:05:44.826Z,44.20
2018-11-14T09:08:11.048Z,44.10
2018-11-14T09:10:37.276Z,44.10
2018-11-14T09:13:03.596Z,44.20
2018-11-14T09:15:30.145Z,44.30
2018-11-14T09:17:56.365Z,44.50
2018-11-14T09:20:22.595Z,44.30
2018-11-14T09:22:48.820Z,44.30
2018-11-14T09:25:15.046Z,44.90
2018-11-14T09:27:41.197Z,44.10
2018-11-14T09:30:07.503Z,44.20
2018-11-14T09:32:33.732Z,44.20
2018-11-14T09:34:59.954Z,44.20
2018-11-14T09:37:26.186Z,44.90
2018-11-14T09:39:52.323Z,44.30
2018-11-14T09:42:18.640Z,44.40
2018-11-14T09:44:44.855Z,44.40
2018-11-14T09:47:11.000Z,44.30
2018-11-14T09:49:37.739Z,44.20
2018-11-14T09:52:03.958Z,44.20
2018-11-14T09:54:30.105Z,44.40
2018-11-14T09:56:56.492Z,44.30
2018-11-14T10:02:05.238Z,44.30
2018-11-14T10:04:31.444Z,44.30
2018-11-14T10:06:57.783Z,44.60
2018-11-14T10:09:23.932Z,44.50
2018-11-14T10:11:50.130Z,44.40
2018-11-14T10:14:16.361Z,44.30
2018-11-14T10:16:42.690Z,44.40
2018-11-14T10:19:09.230Z,44.40
2018-11-14T10:21:35.457Z,44.40
2018-11-14T10:24:01.687Z,44.50
2018-11-14T10:26:27.908Z,44.40
2018-11-14T10:28:55.371Z,44.30
2018-11-14T10:31:21.614Z,44.30
2018-11-14T10:33:49.052Z,44.60
2018-11-14T10:36:15.287Z,44.40
2018-11-14T10:38:41.516Z,44.40
2018-11-14T10:41:07.738Z,44.60
2018-11-14T10:43:33.970Z,44.50
2018-11-14T10:46:00.198Z,44.50
2018-11-14T10:48:26.426Z,44.60
2018-11-14T10:50:52.667Z,44.50
2018-11-14T10:53:19.911Z,44.60
2018-11-14T10:55:46.342Z,44.70
2018-11-14T10:58:12.612Z,44.60
2018-11-14T11:00:40.032Z,44.70
2018-11-14T11:03:06.251Z,44.60
2018-11-14T11:05:32.490Z,44.60
2018-11-14T11:07:58.756Z,44.70
2018-11-14T11:10:25.971Z,44.70
2018-11-14T11:12:52.407Z,44.70
2018-11-14T11:15:18.642Z,44.70
2018-11-14T11:17:44.859Z,44.80
2018-11-14T11:20:11.090Z,44.80
2018-11-14T11:22:37.315Z,44.70
2018-11-14T11:25:03.544Z,44.80
2018-11-14T11:27:29.770Z,44.80
2018-11-14T11:29:56.003Z,44.90
2018-11-14T11:32:22.242Z,44.90
2018-11-14T11:34:48.460Z,44.90
2018-11-14T11:37:14.710Z,44.90
2018-11-14T11:39:42.143Z,45.00
2018-11-14T11:42:08.366Z,44.90
2018-11-14T11:44:34.604Z,45.00
2018-11-14T11:47:02.056Z,45.00
2018-11-14T11:49:28.293Z,45.00
2018-11-14T11:51:54.522Z,44.90
2018-11-14T11:54:20.739Z,45.00
2018-11-14T11:56:46.976Z,44.90
2018-11-14T11:59:13.205Z,45.00
2018-11-14T12:01:39.440Z,45.00
2018-11-14T12:04:05.640Z,45.00
2018-11-14T12:06:31.958Z,45.00
2018-11-14T12:08:58.990Z,45.70
2018-11-14T12:11:25.162Z,45.00
2018-11-14T12:13:51.521Z,45.00
2018-11-14T12:16:18.847Z,45.00
2018-11-14T12:18:45.076Z,45.00
2018-11-14T12:21:11.300Z,45.00
2018-11-14T12:23:37.552Z,45.00
2018-11-14T12:26:04.988Z,45.10
2018-11-14T12:28:31.215Z,45.10
2018-11-14T12:30:57.612Z,45.10
2018-11-14T12:33:24.903Z,45.10
2018-11-14T12:35:51.131Z,45.10
2018-11-14T12:38:17.367Z,45.20
2018-11-14T12:40:43.600Z,45.10
2018-11-14T12:43:09.817Z,45.10
2018-11-14T12:45:36.047Z,45.10
2018-11-14T12:48:02.281Z,45.20
2018-11-14T12:50:28.504Z,45.10
2018-11-14T12:52:54.732Z,45.10
2018-11-14T12:55:20.963Z,45.10
2018-11-14T12:57:47.192Z,45.10
2018-11-14T13:00:13.425Z,45.10
2018-11-14T13:02:39.643Z,45.10
2018-11-14T13:05:05.872Z,45.30
2018-11-14T13:07:32.103Z,45.20
2018-11-14T13:09:58.328Z,45.10
2018-11-14T13:12:24.564Z,45.20
2018-11-14T13:14:50.791Z,45.20
2018-11-14T13:17:17.023Z,45.20
2018-11-14T13:19:43.243Z,45.30
2018-11-14T13:22:09.478Z,45.30
2018-11-14T13:24:35.709Z,45.30
2018-11-14T13:27:01.931Z,45.30
2018-11-14T13:29:28.155Z,45.30
2018-11-14T13:31:54.391Z,45.30
2018-11-14T13:34:20.611Z,45.30
2018-11-14T13:36:46.848Z,45.20
2018-11-14T13:39:13.069Z,45.20
2018-11-14T13:41:39.297Z,45.20
2018-11-14T13:44:05.530Z,45.30
2018-11-14T13:46:31.767Z,45.30
2018-11-14T13:48:58.079Z,45.20
2018-11-14T13:51:25.448Z,45.30
2018-11-14T13:53:51.669Z,45.30
2018-11-14T13:56:17.902Z,45.20
2018-11-14T13:58:44.128Z,45.40
2018-11-14T14:01:10.423Z,45.20
2018-11-14T14:03:37.802Z,45.50
2018-11-14T14:06:04.048Z,45.50
2018-11-14T14:08:30.271Z,45.40
2018-11-14T14:10:56.504Z,45.20
2018-11-14T14:13:22.727Z,45.30
2018-11-14T14:15:48.959Z,45.20
2018-11-14T14:18:15.579Z,45.20
2018-11-14T14:20:41.756Z,45.20
2018-11-14T14:23:07.937Z,45.10
2018-11-14T14:25:34.099Z,45.10
2018-11-14T14:28:00.507Z,45.20
2018-11-14T14:30:26.734Z,45.20
2018-11-14T14:32:57.479Z,45.10
2018-11-14T14:35:23.704Z,45.10
2018-11-14T14:37:49.947Z,45.10
2018-11-14T14:40:17.392Z,45.10
2018-11-14T14:42:43.608Z,45.10
2018-11-14T14:45:09.847Z,45.10
2018-11-14T14:47:36.076Z,45.10
2018-11-14T14:50:02.302Z,45.20
2018-11-14T14:52:28.526Z,45.10
2018-11-14T14:54:54.754Z,45.20
2018-11-14T14:57:20.980Z,45.10
2018-11-14T14:59:47.206Z,45.10
2018-11-14T15:02:13.439Z,45.10
2018-11-14T15:04:39.662Z,45.10
2018-11-14T15:07:05.896Z,45.10
2018-11-14T15:09:32.139Z,45.10
2018-11-14T15:11:59.370Z,45.00
2018-11-14T15:14:25.802Z,45.10
2018-11-14T15:16:52.028Z,45.00
2018-11-14T15:19:18.263Z,45.10
2018-11-14T15:21:44.485Z,45.00
2018-11-14T15:24:10.712Z,45.00
2018-11-14T15:26:36.940Z,45.10
2018-11-14T15:29:03.238Z,45.10
2018-11-14T15:31:29.803Z,45.00
2018-11-14T15:33:56.034Z,45.00
2018-11-14T15:36:22.268Z,45.00
2018-11-14T15:38:48.485Z,45.00
2018-11-14T15:41:14.716Z,44.90
2018-11-14T15:43:40.948Z,44.90
2018-11-14T15:46:07.163Z,45.00
2018-11-14T15:48:33.398Z,44.50
2018-11-14T15:50:59.621Z,45.60
2018-11-14T15:53:25.855Z,45.00
2018-11-14T15:55:52.085Z,44.90
2018-11-14T15:58:18.302Z,44.90
2018-11-14T16:00:44.537Z,44.90
2018-11-14T16:03:10.763Z,44.90
2018-11-14T16:05:37.054Z,44.90
2018-11-14T16:08:04.461Z,44.80
2018-11-14T16:10:30.697Z,44.80
2018-11-14T16:12:56.921Z,44.90
2018-11-14T16:15:23.153Z,44.90
2018-11-14T16:17:49.311Z,44.90
2018-11-14T16:20:15.630Z,44.80
2018-11-14T16:22:41.846Z,44.80
2018-11-14T16:25:08.144Z,44.80
2018-11-14T16:27:35.515Z,44.80
2018-11-14T16:30:01.741Z,44.80
2018-11-14T16:32:27.971Z,44.80
2018-11-14T16:34:54.202Z,44.80
2018-11-14T16:37:20.434Z,44.70
2018-11-14T16:39:46.662Z,44.70
2018-11-14T16:42:12.888Z,44.80
2018-11-14T16:44:39.176Z,44.70
2018-11-14T16:47:06.363Z,44.60
2018-11-14T16:49:32.799Z,44.60
2018-11-14T16:51:59.026Z,44.60
2018-11-14T16:54:25.255Z,44.60
2018-11-14T16:56:51.480Z,44.60
2018-11-14T16:59:17.717Z,44.60
2018-11-14T17:01:43.942Z,45.10
2018-11-14T17:04:15.908Z,44.40
2018-11-14T17:06:42.124Z,44.50
2018-11-14T17:09:08.352Z,44.50
2018-11-14T17:11:34.584Z,45.00
2018-11-14T17:14:00.812Z,44.80
2018-11-14T17:16:27.042Z,44.50
2018-11-14T17:18:53.271Z,44.50
2018-11-14T17:21:19.497Z,44.50
2018-11-14T17:23:45.723Z,44.50
2018-11-14T17:26:12.017Z,44.40
2018-11-14T17:28:39.067Z,44.40
2018-11-14T17:31:05.239Z,44.40
2018-11-14T17:33:31.457Z,44.40
2018-11-14T17:35:57.708Z,44.40
2018-11-14T17:38:25.151Z,44.30
2018-11-14T17:40:51.379Z,44.30
2018-11-14T17:43:17.604Z,44.30
2018-11-14T17:45:43.829Z,44.30
2018-11-14T17:48:10.060Z,44.30
2018-11-14T17:50:36.336Z,44.30
2018-11-14T17:53:03.751Z,44.30
2018-11-14T17:55:30.014Z,44.30
2018-11-14T17:57:57.436Z,44.40
2018-11-14T18:00:23.583Z,44.40
2018-11-14T18:02:49.893Z,44.30
2018-11-14T18:05:17.345Z,44.30
2018-11-14T18:07:43.575Z,44.30
2018-11-14T18:10:09.802Z,44.40
2018-11-14T18:12:36.032Z,44.40
2018-11-14T18:15:02.263Z,44.30
2018-11-14T18:17:28.486Z,44.30
2018-11-14T18:19:54.710Z,44.10
2018-11-14T18:22:20.942Z,44.10
2018-11-14T18:24:47.504Z,44.50
2018-11-14T18:27:13.811Z,44.00
2018-11-14T18:29:40.043Z,44.10
2018-11-14T18:32:06.265Z,44.10
2018-11-14T18:34:32.491Z,44.10
2018-11-14T18:36:58.720Z,44.30
2018-11-14T18:39:24.991Z,44.90
2018-11-14T18:41:52.408Z,44.00
2018-11-14T18:44:18.631Z,44.00
2018-11-14T18:46:44.861Z,44.00
2018-11-14T18:49:11.091Z,43.90
2018-11-14T18:51:37.317Z,43.90
2018-11-14T18:54:03.547Z,43.90
2018-11-14T18:56:29.771Z,44.60
2018-11-14T18:58:55.998Z,43.80
2018-11-14T19:01:22.227Z,44.00
2018-11-14T19:03:48.460Z,43.90
2018-11-14T19:06:14.739Z,43.80
2018-11-14T19:08:40.910Z,43.80
2018-11-14T19:11:07.143Z,44.00
2018-11-14T19:13:33.367Z,43.70
2018-11-14T19:15:59.603Z,43.80
2018-11-14T19:18:25.862Z,43.70
2018-11-14T19:20:53.284Z,43.70
2018-11-14T19:23:19.511Z,43.70
2018-11-14T19:25:45.739Z,43.80
2018-11-14T19:28:11.986Z,43.80
2018-11-14T19:30:38.308Z,43.30
2018-11-14T19:33:04.639Z,43.70
2018-11-14T19:35:30.867Z,43.70
2018-11-14T19:37:57.294Z,43.60
2018-11-14T19:40:23.526Z,43.70
2018-11-14T19:42:49.689Z,43.70
2018-11-14T19:45:15.885Z,43.60
2018-11-14T19:47:42.214Z,43.60
2018-11-14T19:50:08.447Z,43.80
2018-11-14T19:52:34.681Z,43.70
2018-11-14T19:55:00.896Z,43.50
2018-11-14T19:57:27.129Z,43.60
2018-11-14T19:59:53.362Z,43.80
2018-11-14T20:02:19.605Z,43.70
2018-11-14T20:04:45.815Z,43.50
2018-11-14T20:07:15.727Z,43.60
2018-11-14T20:09:41.955Z,43.50
2018-11-14T20:12:10.147Z,43.40
2018-11-14T20:14:36.460Z,43.40
2018-11-14T20:17:02.687Z,43.40
2018-11-14T20:19:28.913Z,43.40
2018-11-14T20:21:55.143Z,43.50
2018-11-14T20:24:21.376Z,44.30
2018-11-14T20:26:47.602Z,43.40
2018-11-14T20:29:13.835Z,43.30
2018-11-14T20:31:40.089Z,43.30
2018-11-14T20:34:07.566Z,43.30
2018-11-14T20:36:34.775Z,43.30
2018-11-14T20:39:02.029Z,43.30
2018-11-14T20:41:28.251Z,43.30
2018-11-14T20:43:54.478Z,43.20
2018-11-14T20:46:20.708Z,43.30
2018-11-14T20:48:46.936Z,43.30
2018-11-14T20:51:13.172Z,43.20
2018-11-14T20:53:39.395Z,43.10
2018-11-14T20:56:05.632Z,43.40
2018-11-14T20:58:31.854Z,43.30
2018-11-14T21:00:58.079Z,43.20
2018-11-14T21:03:24.401Z,43.30
2018-11-14T21:05:51.004Z,43.70
2018-11-14T21:08:18.401Z,43.10
2018-11-14T21:10:44.647Z,43.10
2018-11-14T21:13:10.888Z,43.40
2018-11-14T21:15:38.326Z,43.10
2018-11-14T21:18:04.563Z,43.00
2018-11-14T21:20:30.710Z,43.10
2018-11-14T21:22:56.910Z,43.00
2018-11-14T21:25:23.650Z,43.00
2018-11-14T21:27:49.883Z,43.10
2018-11-14T21:30:16.109Z,43.10
2018-11-14T21:32:42.351Z,43.80
2018-11-14T21:35:08.567Z,43.00
2018-11-14T21:37:34.803Z,42.90
2018-11-14T21:40:01.034Z,43.10
2018-11-14T21:42:27.257Z,43.00
2018-11-14T21:44:53.483Z,43.00
2018-11-14T21:47:19.713Z,42.90
2018-11-14T21:49:45.944Z,43.00
2018-11-14T21:52:15.863Z,42.80
2018-11-14T21:54:42.091Z,42.90
2018-11-14T21:57:08.320Z,42.80
2018-11-14T21:59:34.579Z,43.00
2018-11-14T22:02:01.670Z,42.80
2018-11-14T22:04:27.826Z,42.80
2018-11-14T22:06:54.060Z,42.90
2018-11-14T22:09:20.289Z,42.50
2018-11-14T22:11:51.848Z,42.80
2018-11-14T22:14:18.082Z,42.70
2018-11-14T22:16:44.311Z,43.50
2018-11-14T22:19:10.555Z,42.80
2018-11-14T22:21:37.991Z,43.40
2018-11-14T22:24:09.960Z,42.70
2018-11-14T22:26:36.188Z,42.70
2018-11-14T22:29:02.419Z,42.80
2018-11-14T22:31:28.649Z,42.80
2018-11-14T22:33:54.874Z,42.80
2018-11-14T22:36:21.103Z,42.80
2018-11-14T22:38:47.333Z,43.10
2018-11-14T22:41:13.562Z,43.30
2018-11-14T22:43:39.807Z,42.80
2018-11-14T22:46:06.033Z,42.70
2018-11-14T22:48:32.259Z,42.70
2018-11-14T22:50:58.485Z,42.70
2018-11-14T22:53:24.714Z,43.30
2018-11-14T22:55:50.947Z,42.70
2018-11-14T22:58:17.175Z,42.60
2018-11-14T23:00:43.415Z,42.50
2018-11-14T23:03:09.634Z,43.30
2018-11-14T23:05:35.871Z,42.60
2018-11-14T23:08:02.095Z,42.50
2018-11-14T23:10:28.323Z,42.60
2018-11-14T23:12:54.560Z,42.40
2018-11-14T23:15:20.815Z,42.50
2018-11-14T23:17:48.245Z,42.50
2018-11-14T23:20:14.487Z,42.50
2018-11-14T23:22:40.699Z,42.70
2018-11-14T23:25:06.930Z,42.50
2018-11-14T23:27:33.167Z,42.50
2018-11-14T23:29:59.395Z,42.40
2018-11-14T23:32:25.619Z,42.40
2018-11-14T23:34:51.859Z,42.50
2018-11-14T23:37:18.086Z,42.10
2018-11-14T23:39:44.316Z,42.40
2018-11-14T23:42:10.550Z,42.70
2018-11-14T23:44:36.799Z,42.40
2018-11-14T23:47:03.007Z,42.40
2018-11-14T23:49:29.237Z,42.60
2018-11-14T23:51:55.460Z,42.40
2018-11-14T23:54:21.688Z,42.30
2018-11-14T23:56:47.918Z,42.50
2018-11-14T23:59:14.153Z,43.10
